createdAt,value
2019-01-04T00:01:32.381Z,7.40
2019-01-04T00:04:01.891Z,5.57
2019-01-04T00:06:30.696Z,11.30
2019-01-04T00:08:59.409Z,9.73
2019-01-04T00:11:28.095Z,6.57
2019-01-04T00:13:56.801Z,6.77
2019-01-04T00:16:25.489Z,9.03
2019-01-04T00:18:54.157Z,11.00
2019-01-04T00:21:22.880Z,9.40
2019-01-04T00:23:51.545Z,9.77
2019-01-04T00:26:20.335Z,11.33
2019-01-04T00:28:49.054Z,11.07
2019-01-04T00:31:17.724Z,10.73
2019-01-04T00:33:46.422Z,10.27
2019-01-04T00:36:15.134Z,8.87
2019-01-04T00:38:43.825Z,9.00
2019-01-04T00:41:12.491Z,14.10
2019-01-04T00:43:41.267Z,10.17
2019-01-04T00:46:09.924Z,10.50
2019-01-04T00:48:38.615Z,11.57
2019-01-04T00:51:07.387Z,9.30
2019-01-04T00:53:36.106Z,12.67
2019-01-04T00:56:23.015Z,11.83
2019-01-04T00:59:14.462Z,10.07
2019-01-04T01:01:57.975Z,9.80
2019-01-04T01:04:44.901Z,12.23
2019-01-04T01:07:34.800Z,8.53
2019-01-04T01:10:08.950Z,15.13
2019-01-04T01:13:03.542Z,10.93
2019-01-04T01:15:50.315Z,16.50
2019-01-04T01:18:34.006Z,12.17
2019-01-04T01:21:25.425Z,12.27
2019-01-04T01:24:13.847Z,12.80
2019-01-04T01:27:19.143Z,13.93
2019-01-04T01:30:02.548Z,12.33
2019-01-04T01:32:51.094Z,9.30
2019-01-04T01:35:48.531Z,16.43
2019-01-04T01:38:45.640Z,10.40
2019-01-04T01:41:46.333Z,12.30
2019-01-04T01:44:35.491Z,13.07
2019-01-04T01:47:13.114Z,14.73
2019-01-04T01:49:44.739Z,14.80
2019-01-04T01:52:16.384Z,14.33
2019-01-04T01:54:45.078Z,13.40
2019-01-04T01:57:13.781Z,11.70
2019-01-04T01:59:42.504Z,12.10
2019-01-04T02:02:11.257Z,16.30
2019-01-04T02:04:39.974Z,14.93
2019-01-04T02:07:08.638Z,14.80
2019-01-04T02:09:37.352Z,17.20
2019-01-04T02:12:06.036Z,19.03
2019-01-04T02:14:34.747Z,16.50
2019-01-04T02:17:03.428Z,11.77
2019-01-04T02:19:32.154Z,17.93
2019-01-04T02:22:00.836Z,18.47
2019-01-04T02:24:29.523Z,19.47
2019-01-04T02:26:58.242Z,13.33
2019-01-04T02:29:26.959Z,16.37
2019-01-04T02:31:55.676Z,14.27
2019-01-04T02:34:24.457Z,16.60
2019-01-04T02:36:53.124Z,18.23
2019-01-04T02:39:21.823Z,13.80
2019-01-04T02:41:50.528Z,15.07
2019-01-04T02:44:19.237Z,18.53
2019-01-04T02:46:47.919Z,21.37
2019-01-04T02:49:16.628Z,20.93
2019-01-04T02:51:45.303Z,15.87
2019-01-04T02:54:14.006Z,19.13
2019-01-04T02:56:42.685Z,15.20
2019-01-04T02:59:12.355Z,17.97
2019-01-04T03:01:41.235Z,19.03
2019-01-04T03:04:09.945Z,17.23
2019-01-04T03:06:38.621Z,19.10
2019-01-04T03:09:07.306Z,21.60
2019-01-04T03:11:36.028Z,18.90
2019-01-04T03:14:04.772Z,22.17
2019-01-04T03:16:33.474Z,17.27
2019-01-04T03:19:02.187Z,24.43
2019-01-04T03:21:30.879Z,24.90
2019-01-04T03:23:59.518Z,30.83
2019-01-04T03:26:28.238Z,25.87
2019-01-04T03:28:56.952Z,30.40
2019-01-04T03:31:25.635Z,27.63
2019-01-04T03:33:54.562Z,24.13
2019-01-04T03:36:23.280Z,34.30
2019-01-04T03:38:52.000Z,27.90
2019-01-04T03:41:20.716Z,33.80
2019-01-04T03:43:49.417Z,32.43
2019-01-04T03:46:18.103Z,35.67
2019-01-04T03:48:46.806Z,35.87
2019-01-04T03:51:15.520Z,33.70
2019-01-04T03:53:44.209Z,35.87
2019-01-04T03:56:12.942Z,33.30
2019-01-04T03:58:41.601Z,36.73
2019-01-04T04:01:10.314Z,37.43
2019-01-04T04:03:39.008Z,36.37
2019-01-04T04:06:07.739Z,36.50
2019-01-04T04:08:36.405Z,40.57
2019-01-04T04:11:05.293Z,36.70
2019-01-04T04:13:34.071Z,31.90
2019-01-04T04:16:02.780Z,35.90
2019-01-04T04:18:31.548Z,32.10
2019-01-04T04:21:00.303Z,30.83
2019-01-04T04:23:29.011Z,29.93
2019-01-04T04:25:57.699Z,29.40
2019-01-04T04:28:26.383Z,29.57
2019-01-04T04:30:55.198Z,39.90
2019-01-04T04:33:23.936Z,28.80
2019-01-04T04:35:52.593Z,32.03
2019-01-04T04:38:21.300Z,37.03
2019-01-04T04:40:50.285Z,36.23
2019-01-04T04:43:19.099Z,29.63
2019-01-04T04:45:47.771Z,36.93
2019-01-04T04:48:16.462Z,33.67
2019-01-04T04:50:45.179Z,30.80
2019-01-04T04:53:13.986Z,30.63
2019-01-04T04:55:42.676Z,30.70
2019-01-04T04:58:11.478Z,35.23
2019-01-04T05:00:40.198Z,34.43
2019-01-04T05:03:09.014Z,27.20
2019-01-04T05:05:37.732Z,34.80
2019-01-04T05:08:06.415Z,35.27
2019-01-04T05:10:35.174Z,33.90
2019-01-04T05:13:03.878Z,32.40
2019-01-04T05:15:32.563Z,30.07
2019-01-04T05:18:01.264Z,30.00
2019-01-04T05:20:29.943Z,28.57
2019-01-04T05:22:58.636Z,34.50
2019-01-04T05:25:27.343Z,32.00
2019-01-04T05:27:56.028Z,30.70
2019-01-04T05:30:24.714Z,30.77
2019-01-04T05:32:53.399Z,32.63
2019-01-04T05:35:22.090Z,31.67
2019-01-04T05:37:50.776Z,29.47
2019-01-04T05:40:19.539Z,27.03
2019-01-04T05:42:48.226Z,31.07
2019-01-04T05:45:16.965Z,27.20
2019-01-04T05:47:45.715Z,26.63
2019-01-04T05:50:14.490Z,23.87
2019-01-04T05:52:43.169Z,31.83
2019-01-04T05:55:11.851Z,26.30
2019-01-04T05:57:40.667Z,25.47
2019-01-04T06:00:10.649Z,25.60
2019-01-04T06:02:39.324Z,27.10
2019-01-04T06:05:08.045Z,23.10
2019-01-04T06:07:36.748Z,27.47
2019-01-04T06:10:06.926Z,23.33
2019-01-04T06:12:35.636Z,22.00
2019-01-04T06:15:05.127Z,20.00
2019-01-04T06:17:33.791Z,20.00
2019-01-04T06:20:02.588Z,19.57
2019-01-04T06:22:31.405Z,25.70
2019-01-04T06:25:00.235Z,20.83
2019-01-04T06:27:28.983Z,21.37
2019-01-04T06:29:57.644Z,25.53
2019-01-04T06:32:26.359Z,17.73
2019-01-04T06:34:55.030Z,35.30
2019-01-04T06:37:23.746Z,22.30
2019-01-04T06:39:52.532Z,21.77
2019-01-04T06:42:21.268Z,23.33
2019-01-04T06:44:50.031Z,23.37
2019-01-04T06:47:18.739Z,22.53
2019-01-04T06:49:47.431Z,18.87
2019-01-04T06:52:16.119Z,23.17
2019-01-04T06:55:10.792Z,21.33
2019-01-04T06:57:39.480Z,19.87
2019-01-04T07:00:09.260Z,23.77
2019-01-04T07:02:37.961Z,28.90
2019-01-04T07:05:07.697Z,22.53
2019-01-04T07:07:36.382Z,30.93
2019-01-04T07:10:07.224Z,27.90
2019-01-04T07:12:35.928Z,25.30
2019-01-04T07:15:06.109Z,22.10
2019-01-04T07:17:34.773Z,26.87
2019-01-04T07:20:03.781Z,22.63
2019-01-04T07:22:32.462Z,24.83
2019-01-04T07:25:01.177Z,22.90
2019-01-04T07:27:29.883Z,22.20
2019-01-04T07:29:58.592Z,22.23
2019-01-04T07:32:27.278Z,20.83
2019-01-04T07:34:55.968Z,23.20
2019-01-04T07:37:24.698Z,17.80
2019-01-04T07:39:53.385Z,24.43
2019-01-04T07:42:22.107Z,21.47
2019-01-04T07:44:50.787Z,18.93
2019-01-04T07:47:19.515Z,20.87
2019-01-04T07:49:48.201Z,23.80
2019-01-04T07:52:16.867Z,21.93
2019-01-04T07:54:45.679Z,19.03
2019-01-04T07:57:14.402Z,17.43
2019-01-04T07:59:43.802Z,20.73
2019-01-04T08:02:38.946Z,23.00
2019-01-04T08:05:15.990Z,22.27
2019-01-04T08:07:44.687Z,21.23
2019-01-04T08:10:13.384Z,19.23
2019-01-04T08:12:42.090Z,18.93
2019-01-04T08:15:11.325Z,22.50
2019-01-04T08:17:40.028Z,18.73
2019-01-04T08:20:10.541Z,19.03
2019-01-04T08:22:39.346Z,19.63
2019-01-04T08:25:08.718Z,17.40
2019-01-04T08:27:37.424Z,15.67
2019-01-04T08:30:09.291Z,17.87
2019-01-04T08:32:38.022Z,18.00
2019-01-04T08:35:06.685Z,16.83
2019-01-04T08:37:35.498Z,21.10
2019-01-04T08:40:05.400Z,16.17
2019-01-04T08:42:35.257Z,16.73
2019-01-04T08:45:04.036Z,15.53
2019-01-04T08:47:32.767Z,15.97
2019-01-04T08:50:01.503Z,15.27
2019-01-04T08:52:30.388Z,16.60
2019-01-04T08:54:59.064Z,16.97
2019-01-04T08:57:27.891Z,15.50
2019-01-04T08:59:56.588Z,15.37
2019-01-04T09:02:25.304Z,15.30
2019-01-04T09:04:54.038Z,16.67
2019-01-04T09:07:22.804Z,19.40
2019-01-04T09:09:51.457Z,17.00
2019-01-04T09:12:20.163Z,17.93
2019-01-04T09:14:48.897Z,17.07
2019-01-04T09:17:17.577Z,15.43
2019-01-04T09:19:46.283Z,16.90
2019-01-04T09:22:15.817Z,18.20
2019-01-04T09:24:44.673Z,15.00
2019-01-04T09:27:13.380Z,15.57
2019-01-04T09:29:42.096Z,17.03
2019-01-04T09:32:10.790Z,14.57
2019-01-04T09:34:39.526Z,13.90
2019-01-04T09:37:08.407Z,28.73
2019-01-04T09:39:37.179Z,18.37
2019-01-04T09:42:06.025Z,16.67
2019-01-04T09:44:34.751Z,15.00
2019-01-04T09:47:03.448Z,13.33
2019-01-04T09:49:32.719Z,18.17
2019-01-04T09:52:01.400Z,15.73
2019-01-04T09:54:30.164Z,13.63
2019-01-04T09:56:58.858Z,13.80
2019-01-04T09:59:27.596Z,11.33
2019-01-04T10:01:56.296Z,12.03
2019-01-04T10:04:24.966Z,12.37
2019-01-04T10:06:53.704Z,11.77
2019-01-04T10:09:22.398Z,14.17
2019-01-04T10:11:51.104Z,12.97
2019-01-04T10:14:19.796Z,14.40
2019-01-04T10:16:48.522Z,13.70
2019-01-04T10:19:17.225Z,13.47
2019-01-04T10:21:45.926Z,13.17
2019-01-04T10:24:14.597Z,13.87
2019-01-04T10:26:43.464Z,16.27
2019-01-04T10:29:12.176Z,12.60
2019-01-04T10:31:40.949Z,13.73
2019-01-04T10:34:09.725Z,12.60
2019-01-04T10:36:38.407Z,14.43
2019-01-04T10:39:07.618Z,13.30
2019-01-04T10:41:36.305Z,12.67
2019-01-04T10:44:05.079Z,12.83
2019-01-04T10:46:34.038Z,13.40
2019-01-04T10:49:02.757Z,14.00
2019-01-04T10:51:31.475Z,13.50
2019-01-04T10:54:00.165Z,12.50
2019-01-04T10:56:28.872Z,11.67
2019-01-04T10:58:57.546Z,14.03
2019-01-04T11:01:26.267Z,10.00
2019-01-04T11:03:54.976Z,11.00
2019-01-04T11:06:23.689Z,10.50
2019-01-04T11:08:52.388Z,10.27
2019-01-04T11:11:21.081Z,12.93
2019-01-04T11:13:49.792Z,11.43
2019-01-04T11:16:18.502Z,10.13
2019-01-04T11:18:47.223Z,11.43
2019-01-04T11:21:15.940Z,13.43
2019-01-04T11:24:04.235Z,13.03
2019-01-04T11:26:39.031Z,14.20
2019-01-04T11:29:30.397Z,13.80
2019-01-04T11:32:25.795Z,12.97
2019-01-04T11:35:14.059Z,11.70
2019-01-04T11:37:57.778Z,12.23
2019-01-04T11:40:52.454Z,11.10
2019-01-04T11:43:50.096Z,10.40
2019-01-04T11:46:27.720Z,9.47
2019-01-04T11:48:59.507Z,9.90
2019-01-04T11:51:31.154Z,10.30
2019-01-04T11:53:59.962Z,9.00
2019-01-04T11:56:28.632Z,8.77
2019-01-04T11:58:57.378Z,8.60
2019-01-04T12:01:26.080Z,10.63
2019-01-04T12:03:58.119Z,9.90
2019-01-04T12:06:27.288Z,9.90
2019-01-04T12:08:56.109Z,11.60
2019-01-04T12:11:24.902Z,14.67
2019-01-04T12:13:53.699Z,11.10
2019-01-04T12:16:22.358Z,12.90
2019-01-04T12:18:51.129Z,8.50
2019-01-04T12:21:19.818Z,10.33
2019-01-04T12:23:48.534Z,10.07
2019-01-04T12:26:17.230Z,10.90
2019-01-04T12:28:46.488Z,9.33
2019-01-04T12:31:15.155Z,8.20
2019-01-04T12:33:44.236Z,8.70
2019-01-04T12:36:12.905Z,9.43
2019-01-04T12:38:41.570Z,9.10
2019-01-04T12:41:10.268Z,8.37
2019-01-04T12:43:38.927Z,7.20
2019-01-04T12:46:07.773Z,7.17
2019-01-04T12:48:36.583Z,11.23
2019-01-04T12:51:05.315Z,7.33
2019-01-04T12:53:34.074Z,9.73
2019-01-04T12:56:02.771Z,10.60
2019-01-04T12:58:31.447Z,9.27
2019-01-04T13:01:00.180Z,12.80
2019-01-04T13:03:28.908Z,8.23
2019-01-04T13:05:57.578Z,8.80
2019-01-04T13:08:26.508Z,11.80
2019-01-04T13:10:56.659Z,9.13
2019-01-04T13:13:25.342Z,11.63
2019-01-04T13:15:54.311Z,9.67
2019-01-04T13:18:22.991Z,14.00
2019-01-04T13:20:51.711Z,9.80
2019-01-04T13:23:20.477Z,11.13
2019-01-04T13:25:49.239Z,9.63
2019-01-04T13:28:17.924Z,12.60
2019-01-04T13:30:46.779Z,11.83
2019-01-04T13:33:15.767Z,8.63
2019-01-04T13:35:44.420Z,8.27
2019-01-04T13:38:13.105Z,9.30
2019-01-04T13:40:41.811Z,7.60
2019-01-04T13:43:10.487Z,8.57
2019-01-04T13:45:39.337Z,11.00
2019-01-04T13:48:08.082Z,9.23
2019-01-04T13:50:36.773Z,9.40
2019-01-04T13:53:05.464Z,12.10
2019-01-04T13:55:34.181Z,12.13
2019-01-04T13:58:02.839Z,10.70
2019-01-04T14:00:31.600Z,9.83
2019-01-04T14:03:00.303Z,13.93
2019-01-04T14:05:28.974Z,14.13
2019-01-04T14:07:57.882Z,13.63
2019-01-04T14:10:26.560Z,12.63
2019-01-04T14:12:55.240Z,15.07
2019-01-04T14:15:23.950Z,11.17
2019-01-04T14:17:52.627Z,12.40
2019-01-04T14:20:21.508Z,11.90
2019-01-04T14:22:50.236Z,12.10
2019-01-04T14:25:18.919Z,12.73
2019-01-04T14:27:47.971Z,12.10
2019-01-04T14:30:16.646Z,17.43
2019-01-04T14:32:45.332Z,14.97
2019-01-04T14:35:14.346Z,14.20
2019-01-04T14:37:43.016Z,16.17
2019-01-04T14:40:11.831Z,16.07
2019-01-04T14:42:40.540Z,14.53
2019-01-04T14:45:09.392Z,16.30
2019-01-04T14:47:38.171Z,17.77
2019-01-04T14:50:09.762Z,14.83
2019-01-04T14:52:39.140Z,17.43
2019-01-04T14:55:07.962Z,20.93
2019-01-04T14:57:37.604Z,14.07
2019-01-04T15:00:11.573Z,16.53
2019-01-04T15:02:40.312Z,20.00
2019-01-04T15:05:09.015Z,25.27
2019-01-04T15:07:37.728Z,20.20
2019-01-04T15:10:08.136Z,16.07
2019-01-04T15:12:36.837Z,16.73
2019-01-04T15:15:06.738Z,18.03
2019-01-04T15:17:35.567Z,16.90
2019-01-04T15:20:05.978Z,17.83
2019-01-04T15:22:34.685Z,17.63
2019-01-04T15:25:03.382Z,15.23
2019-01-04T15:27:32.066Z,19.47
2019-01-04T15:30:01.119Z,17.90
2019-01-04T15:32:29.876Z,17.50
2019-01-04T15:34:58.544Z,16.03
2019-01-04T15:37:27.528Z,16.87
2019-01-04T15:39:56.216Z,17.47
2019-01-04T15:42:24.886Z,16.33
2019-01-04T15:44:53.574Z,22.00
2019-01-04T15:47:22.274Z,18.90
2019-01-04T15:49:50.983Z,17.50
2019-01-04T15:52:19.655Z,17.53
2019-01-04T15:54:48.603Z,20.63
2019-01-04T15:57:17.250Z,17.80
2019-01-04T15:59:45.931Z,15.60
2019-01-04T16:02:14.663Z,15.90
2019-01-04T16:04:43.441Z,17.37
2019-01-04T16:07:12.150Z,19.10
2019-01-04T16:09:40.904Z,16.70
2019-01-04T16:12:09.729Z,19.73
2019-01-04T16:14:38.401Z,17.50
2019-01-04T16:17:12.117Z,18.13
2019-01-04T16:19:37.493Z,19.17
2019-01-04T16:22:06.178Z,16.67
2019-01-04T16:24:34.853Z,17.40
2019-01-04T16:27:03.576Z,19.00
2019-01-04T16:29:32.283Z,19.50
2019-01-04T16:32:00.983Z,22.97
2019-01-04T16:34:29.679Z,18.07
2019-01-04T16:36:58.379Z,20.47
2019-01-04T16:39:27.172Z,17.10
2019-01-04T16:41:55.845Z,19.17
2019-01-04T16:44:24.540Z,21.07
2019-01-04T16:46:53.219Z,22.90
2019-01-04T16:49:21.934Z,25.40
2019-01-04T16:51:50.600Z,19.13
2019-01-04T16:54:19.313Z,21.47
2019-01-04T16:56:48.058Z,21.60
2019-01-04T16:59:16.769Z,20.27
2019-01-04T17:01:45.486Z,22.23
2019-01-04T17:04:14.187Z,24.80
2019-01-04T17:06:42.870Z,22.93
2019-01-04T17:09:11.745Z,21.47
2019-01-04T17:11:40.419Z,23.17
2019-01-04T17:14:09.125Z,25.13
2019-01-04T17:16:37.801Z,20.70
2019-01-04T17:19:06.510Z,26.63
2019-01-04T17:21:35.206Z,22.03
2019-01-04T17:24:03.907Z,24.43
2019-01-04T17:26:32.580Z,23.40
2019-01-04T17:29:01.289Z,22.27
2019-01-04T17:31:29.981Z,22.90
2019-01-04T17:33:58.649Z,27.63
2019-01-04T17:36:27.363Z,27.13
2019-01-04T17:38:56.039Z,24.53
2019-01-04T17:41:24.734Z,26.30
2019-01-04T17:43:53.460Z,22.83
2019-01-04T17:46:22.113Z,33.90
2019-01-04T17:48:50.849Z,25.57
2019-01-04T17:51:19.552Z,25.53
2019-01-04T17:53:48.234Z,28.07
2019-01-04T17:56:17.366Z,27.90
2019-01-04T17:58:46.157Z,31.10
2019-01-04T18:01:14.852Z,27.87
2019-01-04T18:03:43.533Z,33.00
2019-01-04T18:06:12.240Z,33.10
2019-01-04T18:08:40.962Z,31.00
2019-01-04T18:11:09.654Z,36.80
2019-01-04T18:13:38.332Z,31.20
2019-01-04T18:16:07.042Z,35.47
2019-01-04T18:18:35.846Z,35.03
2019-01-04T18:21:04.744Z,38.60
2019-01-04T18:23:33.490Z,36.13
2019-01-04T18:26:02.254Z,37.20
2019-01-04T18:28:30.958Z,37.90
2019-01-04T18:30:59.664Z,37.93
2019-01-04T18:33:28.423Z,38.53
2019-01-04T18:35:57.208Z,36.77
2019-01-04T18:38:25.924Z,36.63
2019-01-04T18:40:54.670Z,41.33
2019-01-04T18:43:23.852Z,43.13
2019-01-04T18:45:52.561Z,39.20
2019-01-04T18:48:21.305Z,38.07
2019-01-04T18:50:51.601Z,38.57
2019-01-04T18:53:20.283Z,42.27
2019-01-04T18:55:48.950Z,41.37
2019-01-04T18:58:17.699Z,42.73
2019-01-04T19:00:46.379Z,36.73
2019-01-04T19:03:15.102Z,41.97
2019-01-04T19:05:43.861Z,41.93
2019-01-04T19:08:12.779Z,38.37
2019-01-04T19:10:41.680Z,43.23
2019-01-04T19:13:10.383Z,33.90
2019-01-04T19:15:39.098Z,32.47
2019-01-04T19:18:07.801Z,37.87
2019-01-04T19:20:36.529Z,42.83
2019-01-04T19:23:05.237Z,36.83
2019-01-04T19:25:33.943Z,38.43
2019-01-04T19:28:02.676Z,40.37
2019-01-04T19:30:31.434Z,42.03
2019-01-04T19:33:00.138Z,40.70
2019-01-04T19:35:29.138Z,39.60
2019-01-04T19:37:57.866Z,49.87
2019-01-04T19:40:26.645Z,44.63
2019-01-04T19:42:55.400Z,53.23
2019-01-04T19:45:24.121Z,53.13
2019-01-04T19:47:52.856Z,48.50
2019-01-04T19:50:22.403Z,57.00
2019-01-04T19:52:51.103Z,48.87
2019-01-04T19:55:19.802Z,49.63
2019-01-04T19:57:48.588Z,54.50
2019-01-04T20:00:17.406Z,55.77
2019-01-04T20:02:46.145Z,50.63
2019-01-04T20:05:14.952Z,42.73
2019-01-04T20:08:09.496Z,46.27
2019-01-04T20:10:57.700Z,43.50
2019-01-04T20:13:36.972Z,50.40
2019-01-04T20:16:32.383Z,41.67
2019-01-04T20:19:11.601Z,42.60
2019-01-04T20:21:44.726Z,43.33
2019-01-04T20:24:23.709Z,37.10
2019-01-04T20:26:59.812Z,38.57
2019-01-04T20:29:48.013Z,39.30
2019-01-04T20:32:26.827Z,33.27
2019-01-04T20:34:59.890Z,38.10
2019-01-04T20:37:38.785Z,41.10
2019-01-04T20:40:21.155Z,38.50
2019-01-04T20:42:54.249Z,35.37
2019-01-04T20:45:30.119Z,40.37
2019-01-04T20:48:12.461Z,46.53
2019-01-04T20:50:45.712Z,46.37
2019-01-04T20:53:24.865Z,44.97
2019-01-04T20:56:11.412Z,44.27
2019-01-04T20:58:53.861Z,43.50
2019-01-04T21:01:39.309Z,38.20
2019-01-04T21:04:25.957Z,36.27
2019-01-04T21:06:56.209Z,39.00
2019-01-04T21:09:33.009Z,37.40
2019-01-04T21:12:19.880Z,36.80
2019-01-04T21:15:06.556Z,36.13
2019-01-04T21:17:51.648Z,31.33
2019-01-04T21:20:24.697Z,29.30
2019-01-04T21:22:54.946Z,33.07
2019-01-04T21:25:33.887Z,32.07
2019-01-04T21:28:20.471Z,30.00
2019-01-04T21:31:02.569Z,33.10
2019-01-04T21:33:45.031Z,27.17
2019-01-04T21:36:15.324Z,25.33
2019-01-04T21:38:45.573Z,30.10
2019-01-04T21:41:32.022Z,29.70
2019-01-04T21:44:02.269Z,28.27
2019-01-04T21:46:35.233Z,28.23
2019-01-04T21:49:21.692Z,25.67
2019-01-04T21:51:52.227Z,25.37
2019-01-04T21:54:31.215Z,30.33
2019-01-04T21:57:01.611Z,27.03
2019-01-04T21:59:34.454Z,25.63
2019-01-04T22:02:10.884Z,27.53
2019-01-04T22:04:50.048Z,28.50
2019-01-04T22:07:29.275Z,31.57
2019-01-04T22:10:08.019Z,29.03
2019-01-04T22:12:53.391Z,28.97
2019-01-04T22:15:26.545Z,29.10
2019-01-04T22:17:56.815Z,26.00
2019-01-04T22:20:39.542Z,29.20
2019-01-04T22:23:26.221Z,28.07
2019-01-04T22:25:56.497Z,29.83
2019-01-04T22:28:27.292Z,29.80
2019-01-04T22:30:57.531Z,28.40
2019-01-04T22:33:27.869Z,28.77
2019-01-04T22:36:14.418Z,23.83
2019-01-04T22:38:50.687Z,26.97
2019-01-04T22:41:37.188Z,25.50
2019-01-04T22:44:19.726Z,27.07
2019-01-04T22:46:53.050Z,26.77
2019-01-04T22:49:35.834Z,27.90
2019-01-04T22:52:22.258Z,32.43
2019-01-04T22:54:58.629Z,29.67
2019-01-04T22:57:34.840Z,35.63
2019-01-04T23:00:23.507Z,39.37
2019-01-04T23:02:56.603Z,39.60
2019-01-04T23:05:29.555Z,27.73
2019-01-04T23:08:12.082Z,30.20
2019-01-04T23:10:45.179Z,36.47
2019-01-04T23:13:15.434Z,31.00
2019-01-04T23:16:02.183Z,33.73
2019-01-04T23:18:44.651Z,34.43
2019-01-04T23:22:04.846Z,33.83
2019-01-04T23:24:51.673Z,33.73
2019-01-04T23:27:33.979Z,32.53
2019-01-04T23:30:20.889Z,36.57
2019-01-04T23:33:00.515Z,38.93
2019-01-04T23:35:36.492Z,39.73
2019-01-04T23:38:06.872Z,35.60
2019-01-04T23:40:52.348Z,38.43
2019-01-04T23:43:38.766Z,38.63
2019-01-04T23:46:21.101Z,42.00
2019-01-04T23:49:06.696Z,38.37
2019-01-04T23:51:53.070Z,36.37
2019-01-04T23:54:39.856Z,43.27
2019-01-04T23:57:12.899Z,42.40
2019-01-04T23:59:57.999Z,41.57
